Time;durP1;ratioP1;P1;durP2;ratioP2;P2;SDS_P1;SDS_P2;PMS_P1;PMS_P2;Temp;Humidity;BMP_temperature;BMP_pressure;BME280_temperature;BME280_humidity;BME280_pressure;Samples;Min_cycle;Max_cycle;Signal;HPM_P1;HPM_P2
2023/08/14 00:01:12;;;;;;;;;8.33;7.00;;;;;22.66;66.02;100693.47;5068580;28;45265;-84
2023/08/14 00:03:38;;;;;;;;;8.00;8.00;;;;;22.63;65.96;100688.19;5086407;27;44937;-84
2023/08/14 00:06:06;;;;;;;;;8.67;8.67;;;;;22.73;66.11;100684.19;5088487;28;44920;-84
2023/08/14 00:08:32;;;;;;;;;8.00;6.67;;;;;22.65;66.38;100691.72;5068581;28;45538;-84
2023/08/14 00:10:57;;;;;;;;;9.00;7.33;;;;;22.61;65.59;100685.53;5069263;28;44731;-85
2023/08/14 00:13:23;;;;;;;;;7.00;7.00;;;;;22.58;65.41;100696.47;5067936;28;45259;-84
2023/08/14 00:15:49;;;;;;;;;6.00;5.33;;;;;22.56;66.13;100698.34;5067169;28;47232;-84
2023/08/14 00:21:36;;;;;;;;;10.25;8.00;;;;;22.49;65.47;100680.53;5084849;27;44898;-84
2023/08/14 00:24:02;;;;;;;;;7.67;6.67;;;;;22.46;65.30;100668.00;5084422;28;44854;-85
2023/08/14 00:26:27;;;;;;;;;11.00;7.67;;;;;22.44;64.76;100668.97;5083961;27;46639;-84
2023/08/14 00:28:52;;;;;;;;;7.75;7.00;;;;;22.43;65.08;100687.06;5068153;27;45268;-84
2023/08/14 00:31:18;;;;;;;;;8.00;8.00;;;;;22.43;65.48;100684.34;5068001;27;45064;-84
2023/08/14 00:33:44;;;;;;;;;10.25;8.00;;;;;22.45;64.87;100676.19;5066883;28;44952;-84
2023/08/14 00:36:09;;;;;;;;;5.67;5.67;;;;;22.46;65.59;100664.38;5083639;27;47263;-83
2023/08/14 00:38:34;;;;;;;;;9.00;9.00;;;;;22.48;65.66;100668.84;5085695;27;44685;-85
2023/08/14 00:41:00;;;;;;;;;10.00;9.00;;;;;22.47;66.20;100655.34;5068161;28;45171;-84
2023/08/14 00:43:25;;;;;;;;;9.00;9.00;;;;;22.48;66.00;100652.56;5069716;28;44914;-84
2023/08/14 00:45:54;;;;;;;;;9.00;9.00;;;;;22.54;66.63;100657.75;5084854;27;47106;-85
2023/08/14 00:48:19;;;;;;;;;10.00;10.00;;;;;22.46;66.49;100658.97;5069964;28;44940;-85
2023/08/14 00:50:46;;;;;;;;;13.00;11.67;;;;;22.51;66.57;100656.97;5067909;28;44993;-85
2023/08/14 00:53:14;;;;;;;;;12.33;12.33;;;;;22.45;66.90;100655.38;5067983;28;44971;-84
2023/08/14 00:55:40;;;;;;;;;10.00;9.00;;;;;22.43;67.64;100649.13;5066675;28;45294;-84
2023/08/14 00:58:05;;;;;;;;;10.00;10.00;;;;;22.44;67.26;100652.72;5066676;28;44821;-84
2023/08/14 01:00:34;;;;;;;;;9.33;9.33;;;;;22.41;67.37;100640.16;5085012;27;44754;-85
2023/08/14 01:03:01;;;;;;;;;11.67;11.67;;;;;22.42;67.38;100646.47;5067961;28;44836;-85
2023/08/14 01:05:26;;;;;;;;;11.00;11.00;;;;;22.40;67.34;100653.78;5068182;28;47487;-84
2023/08/14 01:07:52;;;;;;;;;9.33;9.33;;;;;22.39;67.79;100652.00;5066712;28;44798;-84
2023/08/14 01:10:17;;;;;;;;;11.00;11.00;;;;;22.32;67.68;100629.69;5064152;28;44848;-84
2023/08/14 01:12:52;;;;;;;;;11.00;10.00;;;;;22.45;67.45;100640.94;5063751;28;44837;-84
2023/08/14 01:15:22;;;;;;;;;7.67;7.67;;;;;22.39;67.99;100641.19;5066459;28;45202;-85
2023/08/14 01:17:53;;;;;;;;;8.00;8.00;;;;;22.40;68.13;100637.50;5065801;28;44791;-84
2023/08/14 01:20:21;;;;;;;;;8.33;8.33;;;;;22.38;67.63;100640.31;5064431;28;45381;-84
2023/08/14 01:23:05;;;;;;;;;11.67;10.00;;;;;22.27;67.79;100640.66;5064992;28;44962;-84
2023/08/14 01:25:39;;;;;;;;;6.67;6.00;;;;;22.31;67.88;100634.19;5065411;28;47087;-85
2023/08/14 01:28:08;;;;;;;;;8.00;8.00;;;;;22.20;67.98;100630.97;5067502;28;44839;-84
2023/08/14 01:30:33;;;;;;;;;9.00;9.00;;;;;22.10;68.29;100625.00;5064890;28;44758;-85
2023/08/14 01:32:59;;;;;;;;;10.67;10.00;;;;;22.14;68.50;100642.91;5068678;28;44903;-83
2023/08/14 01:35:30;;;;;;;;;9.67;9.67;;;;;22.21;68.82;100638.16;5064273;28;45301;-83
2023/08/14 01:38:07;;;;;;;;;10.33;7.00;;;;;22.25;69.06;100637.13;5067686;28;45037;-83
2023/08/14 01:40:48;;;;;;;;;9.00;9.00;;;;;22.24;69.44;100638.09;5075461;28;44756;-81
2023/08/14 01:43:40;;;;;;;;;11.00;10.00;;;;;22.25;68.29;100647.09;5075060;28;44919;-83
2023/08/14 01:46:09;;;;;;;;;10.00;9.00;;;;;22.27;68.62;100643.38;5077322;28;45241;-81
2023/08/14 01:48:36;;;;;;;;;10.00;10.00;;;;;22.26;68.66;100643.44;5092318;28;44905;-81
2023/08/14 01:51:03;;;;;;;;;12.33;10.00;;;;;22.23;68.56;100641.69;5071534;28;44841;-81
2023/08/14 01:53:32;;;;;;;;;9.33;7.33;;;;;22.15;68.57;100625.69;5055830;28;44828;-82
2023/08/14 01:55:57;;;;;;;;;8.67;8.67;;;;;22.15;68.99;100627.53;5053432;28;47370;-82
2023/08/14 01:58:23;;;;;;;;;13.67;11.00;;;;;22.22;69.07;100630.91;5055673;28;45194;-80
2023/08/14 02:00:49;;;;;;;;;8.33;8.33;;;;;22.20;69.40;100621.94;5071622;28;44830;-80
2023/08/14 02:03:14;;;;;;;;;9.33;9.33;;;;;22.18;69.55;100622.03;5058222;28;45413;-80
2023/08/14 02:05:40;;;;;;;;;8.33;8.00;;;;;22.13;69.66;100624.88;5055761;28;46692;-81
2023/08/14 02:08:05;;;;;;;;;12.33;8.33;;;;;22.08;69.89;100612.47;5055890;28;44800;-81
2023/08/14 02:10:30;;;;;;;;;10.00;7.00;;;;;22.05;70.31;100621.56;5054786;28;44798;-81
2023/08/14 02:12:56;;;;;;;;;10.67;10.67;;;;;22.01;70.42;100622.59;5053004;28;45311;-80
2023/08/14 02:15:22;;;;;;;;;7.67;7.00;;;;;21.97;69.99;100611.00;5055232;28;45206;-80
2023/08/14 02:17:48;;;;;;;;;9.67;8.00;;;;;21.96;70.18;100617.34;5055726;28;44729;-81
2023/08/14 02:20:14;;;;;;;;;7.67;7.67;;;;;21.90;70.52;100620.28;5055901;28;44826;-81
2023/08/14 02:22:39;;;;;;;;;12.00;11.00;;;;;21.91;70.67;100618.44;5055813;28;44800;-82
2023/08/14 02:25:05;;;;;;;;;10.00;7.33;;;;;21.87;71.13;100616.78;5057989;28;47143;-81
2023/08/14 02:27:30;;;;;;;;;9.67;7.00;;;;;21.85;71.55;100613.25;5059211;28;45231;-81
2023/08/14 02:29:55;;;;;;;;;8.33;7.67;;;;;21.83;71.83;100605.19;5058590;28;44947;-81
2023/08/14 02:32:21;;;;;;;;;9.33;9.00;;;;;21.78;71.76;100602.63;5058021;28;44872;-81
2023/08/14 02:34:48;;;;;;;;;12.00;9.67;;;;;21.84;72.22;100606.97;5057036;28;45212;-82
2023/08/14 02:37:15;;;;;;;;;10.33;9.00;;;;;21.81;72.22;100590.81;5056598;28;44855;-82
2023/08/14 02:40:27;;;;;;;;;8.33;8.33;;;;;21.91;72.35;100580.53;5056436;28;44840;-82
2023/08/14 02:42:59;;;;;;;;;11.67;8.00;;;;;21.85;72.78;100586.19;5073433;28;45189;-81
2023/08/14 02:45:25;;;;;;;;;8.00;8.00;;;;;21.71;72.79;100584.84;5059036;28;45636;-81
2023/08/14 02:47:52;;;;;;;;;9.00;9.00;;;;;21.69;72.75;100585.81;5059977;28;44753;-81
2023/08/14 02:50:17;;;;;;;;;7.33;6.33;;;;;21.71;72.43;100581.25;5081184;28;45154;-81
2023/08/14 02:52:44;;;;;;;;;8.33;8.00;;;;;21.78;72.57;100574.69;5099549;27;44862;-81
2023/08/14 02:55:09;;;;;;;;;9.33;9.33;;;;;21.68;72.40;100582.25;5079809;28;47103;-81
2023/08/14 02:57:35;;;;;;;;;9.00;8.00;;;;;21.69;72.47;100588.53;5096520;27;44709;-81
2023/08/14 03:00:00;;;;;;;;;8.67;8.33;;;;;21.66;72.41;100594.06;5097983;28;44846;-81
2023/08/14 03:02:26;;;;;;;;;8.00;8.00;;;;;21.64;72.33;100588.69;5080005;28;44810;-81
2023/08/14 03:04:51;;;;;;;;;7.00;6.33;;;;;21.63;72.21;100580.63;5097490;27;45081;-80
2023/08/14 03:07:16;;;;;;;;;7.00;7.00;;;;;21.56;72.34;100579.97;5078727;27;45000;-81
2023/08/14 03:09:42;;;;;;;;;7.67;7.00;;;;;21.57;72.12;100587.13;5079646;28;45087;-81
2023/08/14 03:12:07;;;;;;;;;9.00;8.67;;;;;21.48;72.47;100576.63;5079055;27;44849;-82
2023/08/14 03:14:33;;;;;;;;;9.00;8.00;;;;;21.53;72.12;100580.03;5077535;28;45301;-81
2023/08/14 03:17:01;;;;;;;;;9.00;9.00;;;;;21.50;72.59;100569.34;5077842;28;44747;-81
2023/08/14 03:19:26;;;;;;;;;10.67;10.00;;;;;21.46;71.93;100573.09;5096556;27;44791;-81
2023/08/14 03:21:52;;;;;;;;;9.33;7.00;;;;;21.50;72.66;100574.75;5098117;27;44814;-81
2023/08/14 03:24:18;;;;;;;;;7.00;6.00;;;;;21.48;72.13;100568.50;5096380;28;47244;-81
2023/08/14 03:26:44;;;;;;;;;9.00;8.33;;;;;21.45;72.78;100574.91;5079577;28;44832;-79
2023/08/14 03:32:31;;;;;;;;;8.33;7.33;;;;;21.45;72.03;100568.59;5095869;28;44864;-81
2023/08/14 03:34:57;;;;;;;;;8.67;8.00;;;;;21.47;71.81;100589.28;5095687;28;46906;-81
2023/08/14 03:37:22;;;;;;;;;8.33;6.67;;;;;21.45;72.35;100584.84;5098182;27;44761;-81
2023/08/14 03:39:47;;;;;;;;;8.00;8.00;;;;;21.45;72.11;100582.13;5097462;27;45483;-81
2023/08/14 03:42:13;;;;;;;;;8.00;8.00;;;;;21.44;71.85;100570.44;5079064;28;44850;-79
2023/08/14 03:44:38;;;;;;;;;8.00;8.00;;;;;21.37;71.99;100561.59;5097445;27;45164;-80
2023/08/14 03:47:04;;;;;;;;;6.33;6.33;;;;;21.42;72.04;100565.97;5095453;27;44833;-80
2023/08/14 03:49:36;;;;;;;;;7.00;7.00;;;;;21.36;72.56;100570.66;5095922;27;44862;-82
2023/08/14 03:52:04;;;;;;;;;8.67;7.00;;;;;21.33;72.43;100567.16;5095956;28;44883;-81
2023/08/14 03:54:30;;;;;;;;;8.00;6.67;;;;;21.36;72.73;100577.88;5076823;28;46274;-82
2023/08/14 03:56:56;;;;;;;;;9.33;9.00;;;;;21.33;72.28;100570.75;5096467;28;44865;-81
2023/08/14 03:59:22;;;;;;;;;11.00;9.67;;;;;21.34;72.89;100571.63;5097628;28;45052;-81
2023/08/14 04:01:49;;;;;;;;;8.00;8.00;;;;;21.31;72.73;100551.00;5098528;27;44838;-81
2023/08/14 04:04:14;;;;;;;;;10.00;10.00;;;;;21.25;72.91;100551.19;5096679;27;45313;-81
2023/08/14 04:06:42;;;;;;;;;9.00;8.67;;;;;21.31;73.05;100566.31;5094336;28;44848;-81
2023/08/14 04:09:09;;;;;;;;;8.33;8.00;;;;;21.22;72.20;100559.41;5095116;27;45300;-80
2023/08/14 04:11:34;;;;;;;;;7.00;7.00;;;;;21.20;72.41;100553.16;5097603;27;44752;-80
2023/08/14 04:14:00;;;;;;;;;6.67;6.00;;;;;21.23;72.91;100572.00;5079236;28;46865;-80
2023/08/14 04:16:41;;;;;;;;;7.33;7.33;;;;;21.17;73.08;100567.66;5078002;27;44732;-80
2023/08/14 04:19:16;;;;;;;;;8.00;6.67;;;;;21.15;72.98;100558.72;5095265;28;45266;-80
2023/08/14 04:21:42;;;;;;;;;10.67;8.00;;;;;21.17;72.69;100555.97;5095677;28;44888;-80
2023/08/14 04:24:08;;;;;;;;;9.00;9.00;;;;;21.12;73.11;100553.41;5095440;28;47156;-81
2023/08/14 04:26:36;;;;;;;;;9.33;7.00;;;;;21.10;72.83;100554.41;5096046;27;44809;-81
2023/08/14 04:29:06;;;;;;;;;10.00;8.67;;;;;21.15;72.80;100560.56;5097606;27;44725;-82
2023/08/14 04:31:35;;;;;;;;;7.00;7.00;;;;;21.09;72.78;100564.34;5096413;27;44836;-80
2023/08/14 04:34:02;;;;;;;;;8.00;6.67;;;;;21.16;72.79;100568.59;5090501;28;45443;-81
2023/08/14 04:36:29;;;;;;;;;8.67;7.00;;;;;21.09;72.62;100560.75;5096933;27;44708;-81
2023/08/14 04:38:54;;;;;;;;;6.25;5.25;;;;;21.05;72.66;100559.97;5095137;28;44806;-81
2023/08/14 04:41:20;;;;;;;;;9.00;7.67;;;;;21.05;73.09;100568.06;5094420;27;44836;-81
2023/08/14 04:43:45;;;;;;;;;10.00;7.00;;;;;21.01;72.91;100554.72;5093804;28;46655;-81
2023/08/14 04:46:11;;;;;;;;;6.00;6.00;;;;;21.05;72.96;100559.09;5095401;27;44788;-81
2023/08/14 04:48:40;;;;;;;;;7.00;7.00;;;;;21.01;72.99;100561.00;5093936;28;44804;-82
2023/08/14 04:51:06;;;;;;;;;5.33;5.33;;;;;21.06;72.66;100563.53;5092993;27;44783;-80
2023/08/14 04:53:31;;;;;;;;;6.00;6.00;;;;;21.00;72.76;100561.91;5095125;28;45487;-80
2023/08/14 04:55:57;;;;;;;;;9.33;7.33;;;;;20.95;72.30;100558.50;5076715;28;44785;-80
2023/08/14 04:58:22;;;;;;;;;8.67;7.00;;;;;20.99;72.39;100568.28;5095409;28;44847;-80
2023/08/14 05:00:48;;;;;;;;;6.33;6.33;;;;;20.96;72.45;100561.13;5094612;27;44792;-80
2023/08/14 05:03:14;;;;;;;;;8.00;7.33;;;;;20.95;72.37;100551.25;5093474;27;46971;-80
2023/08/14 05:05:43;;;;;;;;;7.67;5.67;;;;;21.04;72.52;100566.28;5077042;28;44976;-81
2023/08/14 05:08:08;;;;;;;;;7.00;7.00;;;;;20.99;72.36;100568.28;5094022;27;44846;-82
2023/08/14 05:10:33;;;;;;;;;6.00;6.00;;;;;21.00;72.36;100567.31;5094564;27;44849;-80
2023/08/14 05:12:59;;;;;;;;;5.67;5.67;;;;;21.03;72.31;100569.06;5095554;27;45056;-80
2023/08/14 05:15:26;;;;;;;;;5.00;5.00;;;;;21.05;71.93;100567.19;5094223;28;44717;-81
2023/08/14 05:17:51;;;;;;;;;6.67;6.67;;;;;21.09;72.01;100568.88;5094416;28;44782;-81
2023/08/14 05:20:16;;;;;;;;;8.67;7.00;;;;;21.11;72.16;100569.69;5095164;27;45161;-81
2023/08/14 05:22:43;;;;;;;;;8.00;7.00;;;;;21.09;72.17;100568.88;5094313;27;47169;-81
2023/08/14 05:25:10;;;;;;;;;7.67;5.00;;;;;21.09;71.94;100564.34;5096996;28;45211;-80
2023/08/14 05:27:38;;;;;;;;;9.67;7.67;;;;;21.10;71.95;100566.09;5095951;27;45313;-81
2023/08/14 05:30:05;;;;;;;;;8.00;8.00;;;;;21.11;71.96;100575.09;5095492;27;45241;-80
2023/08/14 05:32:31;;;;;;;;;8.00;8.00;;;;;21.11;71.90;100562.47;5095728;28;45532;-80
2023/08/14 05:34:56;;;;;;;;;9.67;6.67;;;;;21.09;71.43;100567.03;5094613;28;45205;-81
2023/08/14 05:37:22;;;;;;;;;7.33;7.00;;;;;21.14;71.77;100566.88;5094237;28;44908;-80
2023/08/14 05:39:47;;;;;;;;;7.33;7.33;;;;;21.12;72.03;100563.34;5093691;28;44702;-81
2023/08/14 05:42:15;;;;;;;;;7.67;6.67;;;;;21.13;71.95;100562.44;5065458;28;47212;-82
2023/08/14 05:44:40;;;;;;;;;7.00;7.00;;;;;21.13;71.85;100555.19;5067459;28;44897;-82
2023/08/14 05:47:06;;;;;;;;;6.00;5.67;;;;;21.17;71.33;100553.28;5067141;28;45172;-82
2023/08/14 05:49:31;;;;;;;;;7.33;6.33;;;;;21.16;71.62;100543.38;5065705;28;45618;-82
2023/08/14 05:51:57;;;;;;;;;5.33;5.33;;;;;21.13;71.04;100538.09;5086993;28;46160;-82
2023/08/14 05:54:22;;;;;;;;;7.00;5.67;;;;;21.18;71.39;100546.91;5085526;28;44868;-82
2023/08/14 05:56:49;;;;;;;;;7.33;6.00;;;;;21.18;71.52;100546.91;5082710;28;45038;-82
2023/08/14 05:59:15;;;;;;;;;9.67;9.33;;;;;21.16;71.08;100533.44;5082491;27;45346;-82
2023/08/14 06:01:40;;;;;;;;;6.00;6.00;;;;;21.29;71.17;100543.84;5083285;28;45253;-83
2023/08/14 06:04:08;;;;;;;;;7.33;6.00;;;;;21.49;70.97;100544.13;5083338;27;45396;-82
2023/08/14 06:06:34;;;;;;;;;6.33;6.00;;;;;21.47;70.65;100534.25;5064903;28;44760;-81
2023/08/14 06:09:03;;;;;;;;;6.67;5.33;;;;;21.71;70.50;100535.22;5083068;27;44847;-83
2023/08/14 06:11:29;;;;;;;;;7.00;7.00;;;;;21.84;69.85;100536.56;5065990;28;47274;-83
2023/08/14 06:13:57;;;;;;;;;7.00;6.33;;;;;22.02;69.57;100535.03;5066213;28;44851;-83
2023/08/14 06:16:23;;;;;;;;;8.00;6.67;;;;;22.23;68.97;100527.91;5084670;27;45284;-82
2023/08/14 06:18:48;;;;;;;;;7.75;5.00;;;;;22.40;68.73;100539.97;5084544;28;44899;-82
2023/08/14 06:21:13;;;;;;;;;9.00;7.00;;;;;22.55;67.96;100533.97;5087006;28;45057;-82
2023/08/14 06:23:39;;;;;;;;;8.67;8.67;;;;;22.70;67.38;100538.78;5085229;27;44935;-83
2023/08/14 06:26:04;;;;;;;;;7.33;7.00;;;;;22.79;66.64;100526.69;5088066;28;44904;-83
2023/08/14 06:28:30;;;;;;;;;9.00;7.25;;;;;22.94;66.46;100541.44;5086868;28;44931;-83
2023/08/14 06:31:01;;;;;;;;;7.75;7.25;;;;;23.02;65.85;100528.50;5084217;27;45854;-83
2023/08/14 06:33:27;;;;;;;;;11.00;9.00;;;;;23.06;65.65;100534.69;5083981;28;44709;-83
2023/08/14 06:35:54;;;;;;;;;6.00;6.00;;;;;23.15;65.06;100539.75;5083616;27;44873;-82
2023/08/14 06:38:19;;;;;;;;;6.00;6.00;;;;;23.28;64.27;100534.69;5084266;28;44954;-82
2023/08/14 06:40:45;;;;;;;;;8.00;6.67;;;;;23.43;63.37;100544.00;5065436;28;46901;-84
2023/08/14 06:43:10;;;;;;;;;7.75;6.00;;;;;23.56;63.56;100540.69;5082467;28;44935;-82
2023/08/14 06:45:35;;;;;;;;;8.33;7.00;;;;;23.67;62.73;100540.25;5084768;28;45026;-83
2023/08/14 06:48:01;;;;;;;;;9.67;8.33;;;;;23.78;62.18;100544.34;5084899;27;45387;-82
2023/08/14 06:50:26;;;;;;;;;10.00;7.00;;;;;23.84;63.22;100538.66;5062997;28;47241;-82
2023/08/14 06:52:52;;;;;;;;;7.67;7.67;;;;;23.98;62.38;100541.63;5065540;28;44876;-83
2023/08/14 06:55:18;;;;;;;;;8.00;8.00;;;;;24.05;61.81;100543.09;5064967;28;44745;-82
2023/08/14 06:57:43;;;;;;;;;9.00;7.00;;;;;24.10;61.65;100543.78;5064768;28;45364;-83
2023/08/14 07:00:13;;;;;;;;;6.75;6.00;;;;;24.24;60.94;100536.81;5063755;28;45378;-82
2023/08/14 07:02:39;;;;;;;;;6.67;6.67;;;;;24.26;60.41;100552.13;5064057;28;44872;-83
2023/08/14 07:08:28;;;;;;;;;5.33;5.33;;;;;24.41;59.61;100536.06;5063741;28;44752;-83
2023/08/14 07:10:53;;;;;;;;;6.67;4.00;;;;;24.41;59.97;100539.66;5063198;28;47579;-82
2023/08/14 07:13:19;;;;;;;;;5.00;4.25;;;;;24.53;59.51;100552.69;5067531;28;44736;-83
2023/08/14 07:15:47;;;;;;;;;6.33;6.33;;;;;24.55;58.97;100544.47;5065676;28;44827;-82
2023/08/14 07:18:17;;;;;;;;;8.00;7.00;;;;;24.49;59.26;100550.19;5067962;28;44774;-83
2023/08/14 07:20:45;;;;;;;;;6.25;5.50;;;;;24.44;59.49;100550.41;5067801;28;45087;-83
2023/08/14 07:23:21;;;;;;;;;6.00;6.00;;;;;24.34;59.84;100546.34;5070120;28;44806;-83
2023/08/14 07:25:49;;;;;;;;;5.25;5.25;;;;;24.33;59.61;100545.44;5074048;28;45465;-85
2023/08/14 07:28:21;;;;;;;;;5.00;5.00;;;;;24.52;59.35;100556.41;5069713;28;44769;-84
2023/08/14 07:30:46;;;;;;;;;5.33;5.00;;;;;24.46;59.17;100548.50;5068308;28;45338;-84
2023/08/14 07:33:13;;;;;;;;;6.50;6.50;;;;;24.59;59.46;100564.25;5068816;28;44770;-83
2023/08/14 07:35:39;;;;;;;;;5.50;5.50;;;;;24.69;58.77;100562.88;5068441;28;44745;-84
2023/08/14 07:38:04;;;;;;;;;6.25;6.25;;;;;24.81;58.14;100562.28;5070729;28;44917;-84
2023/08/14 07:40:30;;;;;;;;;5.67;5.67;;;;;24.89;58.53;100554.63;5069322;28;47119;-83
2023/08/14 07:42:55;;;;;;;;;8.75;7.25;;;;;24.97;58.06;100542.50;5071099;28;44763;-83
2023/08/14 07:45:26;;;;;;;;;6.33;6.33;;;;;25.23;57.77;100543.94;5070810;28;44869;-83
2023/08/14 07:47:52;;;;;;;;;7.50;6.00;;;;;25.22;57.92;100559.38;5084414;28;44848;-82
2023/08/14 07:50:17;;;;;;;;;6.00;6.00;;;;;25.26;56.55;100550.13;5074898;28;45344;-83
2023/08/14 07:52:43;;;;;;;;;6.50;6.50;;;;;25.33;56.78;100557.03;5087639;28;44760;-83
2023/08/14 07:55:08;;;;;;;;;8.00;3.75;;;;;25.33;56.61;100545.25;5088589;28;44810;-83
2023/08/14 07:57:34;;;;;;;;;6.25;4.75;;;;;25.47;55.54;100547.25;5088471;28;45232;-84
2023/08/14 07:59:59;;;;;;;;;4.00;4.00;;;;;25.55;55.59;100555.91;5087570;28;47166;-80
2023/08/14 08:02:25;;;;;;;;;5.75;5.00;;;;;25.67;55.16;100547.16;5090585;28;45395;-83
2023/08/14 08:04:51;;;;;;;;;6.00;4.00;;;;;25.80;54.92;100560.13;5086749;28;45246;-83
2023/08/14 08:07:17;;;;;;;;;5.75;5.75;;;;;25.83;54.39;100549.91;5087608;28;44920;-83
2023/08/14 08:09:42;;;;;;;;;8.25;7.50;;;;;25.84;54.17;100542.66;5068007;28;47506;-83
2023/08/14 08:12:08;;;;;;;;;5.75;4.50;;;;;25.85;54.11;100547.13;5067475;28;44846;-83
2023/08/14 08:14:35;;;;;;;;;3.50;3.50;;;;;25.96;54.04;100544.75;5085002;28;45344;-84
2023/08/14 08:20:22;;;;;;;;;4.00;4.00;;;;;26.28;52.72;100528.50;5092281;28;44917;-84
2023/08/14 08:23:05;;;;;;;;;4.50;4.50;;;;;26.48;52.86;100533.75;5089851;28;45356;-87
2023/08/14 08:25:30;;;;;;;;;5.00;3.25;;;;;26.32;52.61;100530.97;5072160;28;44844;-85
2023/08/14 08:27:56;;;;;;;;;6.00;4.50;;;;;26.34;53.51;100533.63;5088268;28;44959;-85
2023/08/14 08:30:31;;;;;;;;;4.75;4.00;;;;;26.42;52.31;100531.34;5089681;28;45229;-85
2023/08/14 08:32:56;;;;;;;;;4.50;3.50;;;;;26.34;53.46;100528.19;5090184;27;45007;-85
2023/08/14 08:35:22;;;;;;;;;4.00;3.00;;;;;26.49;52.85;100526.44;5085218;28;45544;-82
2023/08/14 08:37:47;;;;;;;;;3.50;3.50;;;;;26.53;53.12;100522.56;5088342;28;44891;-83
2023/08/14 08:40:12;;;;;;;;;3.00;3.00;;;;;26.54;51.91;100533.41;5089485;28;45331;-85
2023/08/14 08:42:39;;;;;;;;;4.50;3.75;;;;;26.41;51.66;100524.13;5087688;28;44805;-83
2023/08/14 08:45:09;;;;;;;;;5.50;4.75;;;;;26.33;51.92;100518.22;5086032;28;44784;-83
2023/08/14 08:47:39;;;;;;;;;6.00;5.00;;;;;26.43;51.96;100526.78;5087854;28;44877;-84
2023/08/14 08:50:06;;;;;;;;;6.50;4.50;;;;;26.34;52.67;100526.31;5089023;28;45161;-84
2023/08/14 08:52:32;;;;;;;;;5.25;4.50;;;;;26.30;52.77;100515.69;5090825;27;44769;-84
2023/08/14 09:01:42;;;;;;;;;3.50;3.50;;;;;26.48;52.73;100517.38;5084112;28;44876;-84
2023/08/14 09:04:08;;;;;;;;;3.00;3.00;;;;;26.57;52.48;100520.56;5069497;28;44757;-84
2023/08/14 09:06:34;;;;;;;;;5.25;5.25;;;;;26.67;52.16;100521.84;5086616;27;44867;-83
2023/08/14 09:09:00;;;;;;;;;4.00;4.00;;;;;26.65;52.34;100515.59;5085053;28;44881;-84
2023/08/14 09:11:28;;;;;;;;;5.00;4.00;;;;;26.75;52.84;100514.09;5084776;28;45134;-85
2023/08/14 09:13:54;;;;;;;;;5.00;5.00;;;;;26.80;53.16;100508.34;5066452;28;44767;-84
2023/08/14 09:16:20;;;;;;;;;3.75;3.75;;;;;26.82;52.37;100495.50;5087776;28;44784;-84
2023/08/14 09:18:45;;;;;;;;;8.00;5.50;;;;;26.90;53.03;100498.66;5090217;28;45010;-84
2023/08/14 09:21:12;;;;;;;;;3.50;3.50;;;;;27.01;52.94;100498.06;5090166;27;45192;-84
2023/08/14 09:23:39;;;;;;;;;6.50;4.75;;;;;27.12;53.13;100487.38;5070850;28;44723;-84
2023/08/14 09:26:05;;;;;;;;;5.75;2.50;;;;;27.13;52.84;100491.88;5088818;28;45118;-83
2023/08/14 09:28:31;;;;;;;;;6.00;6.00;;;;;27.16;52.41;100478.03;5088944;28;45292;-84
2023/08/14 09:31:08;;;;;;;;;5.00;4.00;;;;;27.33;53.05;100488.00;5084014;28;47416;-84
2023/08/14 09:33:39;;;;;;;;;4.33;3.00;;;;;27.37;53.01;100497.78;5086835;28;44816;-83
2023/08/14 09:39:27;;;;;;;;;4.00;4.00;;;;;27.32;53.06;100503.50;5084432;28;46003;-82
2023/08/14 09:41:53;;;;;;;;;3.00;3.00;;;;;27.43;52.47;100491.94;5087050;28;45062;-81
2023/08/14 09:44:23;;;;;;;;;4.25;4.25;;;;;27.53;53.28;100492.22;5087241;28;44792;-82
2023/08/14 09:46:59;;;;;;;;;5.00;5.00;;;;;27.60;52.26;100490.03;5070344;28;44971;-85
2023/08/14 09:49:27;;;;;;;;;3.75;3.00;;;;;27.56;53.06;100470.22;5091579;27;44860;-84
2023/08/14 09:51:59;;;;;;;;;4.25;4.25;;;;;27.67;52.66;100473.19;5089422;28;45222;-84
2023/08/14 09:54:32;;;;;;;;;4.75;4.00;;;;;27.64;52.49;100476.09;5070444;28;44769;-84
2023/08/14 09:57:07;;;;;;;;;2.00;1.25;;;;;27.52;52.82;100477.72;5069332;28;44845;-84
2023/08/14 09:59:32;;;;;;;;;7.75;6.75;;;;;27.47;52.95;100473.50;5084431;27;44990;-84
2023/08/14 10:02:00;;;;;;;;;5.75;5.00;;;;;27.62;53.62;100480.75;5084804;28;45970;-83
2023/08/14 10:04:31;;;;;;;;;6.00;6.00;;;;;27.64;53.47;100467.88;5084811;28;44731;-84
2023/08/14 10:07:02;;;;;;;;;5.00;5.00;;;;;27.61;52.83;100468.09;5067871;28;45420;-85
2023/08/14 10:09:30;;;;;;;;;4.50;2.50;;;;;27.70;53.46;100472.97;5086502;28;44733;-82
2023/08/14 10:15:26;;;;;;;;;2.50;2.50;;;;;27.80;53.31;100462.34;5085557;28;44791;-81
2023/08/14 10:18:04;;;;;;;;;2.75;2.75;;;;;27.89;53.58;100460.91;5083478;28;44867;-81
2023/08/14 10:20:33;;;;;;;;;4.50;4.00;;;;;27.93;52.72;100462.47;5065709;28;44909;-82
2023/08/14 10:23:01;;;;;;;;;3.75;3.75;;;;;27.87;52.81;100462.88;5086039;27;45377;-82
2023/08/14 10:25:28;;;;;;;;;4.00;4.00;;;;;27.84;53.39;100454.84;5085425;28;45236;-82
2023/08/14 10:27:53;;;;;;;;;3.50;3.50;;;;;27.84;53.37;100452.13;5084907;28;44702;-81
2023/08/14 10:30:23;;;;;;;;;6.00;6.00;;;;;28.10;52.80;100469.63;5083194;28;44840;-81
2023/08/14 10:32:52;;;;;;;;;4.50;3.50;;;;;28.08;53.25;100452.47;5065066;28;47343;-80
2023/08/14 10:35:20;;;;;;;;;5.00;4.25;;;;;28.20;53.02;100456.22;5084415;28;44799;-81
2023/08/14 10:37:52;;;;;;;;;4.25;4.25;;;;;28.30;52.35;100452.81;5085001;28;44860;-80
2023/08/14 10:40:23;;;;;;;;;5.00;5.00;;;;;28.28;53.16;100457.53;5082797;28;45143;-83
2023/08/14 10:42:57;;;;;;;;;4.25;4.25;;;;;28.34;52.09;100453.50;5082148;28;45401;-82
2023/08/14 10:45:25;;;;;;;;;5.00;5.00;;;;;28.29;52.21;100455.66;5066454;28;44824;-82
2023/08/14 10:47:52;;;;;;;;;3.25;3.25;;;;;28.23;51.95;100454.19;5086383;28;44855;-82
2023/08/14 10:50:20;;;;;;;;;4.25;4.25;;;;;28.38;51.90;100463.28;5068857;28;44884;-82
2023/08/14 10:52:51;;;;;;;;;7.75;5.00;;;;;28.70;51.78;100463.94;5070546;28;47239;-82
2023/08/14 10:55:45;;;;;;;;;3.50;3.50;;;;;28.99;51.38;100462.97;5071069;28;44858;-82
2023/08/14 10:58:31;;;;;;;;;3.00;3.00;;;;;29.27;50.35;100457.41;5086188;28;45270;-81
2023/08/14 11:01:05;;;;;;;;;5.00;5.00;;;;;29.37;49.80;100452.16;5087663;28;44774;-82
2023/08/14 11:04:05;;;;;;;;;5.50;4.50;;;;;29.49;49.19;100448.56;5086733;28;45365;-82
2023/08/14 11:06:56;;;;;;;;;3.00;3.00;;;;;29.58;49.75;100444.28;5088838;28;44834;-83
2023/08/14 11:09:22;;;;;;;;;2.50;2.25;;;;;29.56;50.10;100442.66;5062632;28;45398;-82
2023/08/14 11:11:48;;;;;;;;;5.25;5.25;;;;;29.65;48.51;100433.78;5069011;28;45619;-83
2023/08/14 11:14:14;;;;;;;;;5.00;4.00;;;;;29.69;49.54;100427.09;5088185;28;45215;-83
2023/08/14 11:16:41;;;;;;;;;5.50;4.00;;;;;30.00;49.25;100439.53;5069871;28;45762;-83
2023/08/14 11:19:06;;;;;;;;;5.25;4.50;;;;;30.21;49.14;100430.72;5068834;28;45470;-82
2023/08/14 11:21:35;;;;;;;;;5.75;5.00;;;;;30.61;48.03;100425.06;5086823;28;45312;-82
2023/08/14 11:24:08;;;;;;;;;6.67;5.00;;;;;30.68;47.11;100427.22;5067958;28;47038;-83
2023/08/14 11:26:33;;;;;;;;;3.25;3.25;;;;;30.69;46.95;100419.84;5085364;28;45452;-83
2023/08/14 11:29:03;;;;;;;;;5.25;5.25;;;;;30.61;47.09;100425.06;5070407;28;44990;-83
2023/08/14 11:31:31;;;;;;;;;5.50;5.50;;;;;30.46;47.59;100411.50;5096968;28;44740;-82
2023/08/14 11:33:59;;;;;;;;;4.50;4.50;;;;;30.68;47.73;100423.59;5070255;28;45574;-82
2023/08/14 11:36:25;;;;;;;;;4.00;3.75;;;;;30.64;47.87;100422.06;5087541;28;45433;-82
2023/08/14 11:38:51;;;;;;;;;2.00;2.00;;;;;30.76;48.07;100421.13;5084931;28;45092;-82
2023/08/14 11:41:19;;;;;;;;;4.25;4.00;;;;;30.96;47.52;100425.13;5088876;28;45320;-82
2023/08/14 11:43:47;;;;;;;;;4.50;4.50;;;;;31.21;47.67;100424.16;5089466;28;45258;-84
2023/08/14 11:46:15;;;;;;;;;3.25;3.25;;;;;31.52;47.43;100424.50;5089137;28;44793;-83
2023/08/14 11:48:43;;;;;;;;;3.50;3.25;;;;;31.60;47.14;100411.03;5088957;28;44966;-82
2023/08/14 11:51:09;;;;;;;;;4.50;4.50;;;;;31.59;45.84;100414.81;5085450;28;44788;-82
2023/08/14 11:53:35;;;;;;;;;4.75;4.75;;;;;31.56;45.55;100415.03;5068051;28;46736;-82